sensor_id;sensor_type;location;lat;lon;timestamp;P1;durP1;ratioP1;P2;durP2;ratioP2
80136;SDS011;69466;55.948;37.484;2023-07-29T00:01:46;5.40;;;2.90;;
80136;SDS011;69466;55.948;37.484;2023-07-29T00:04:12;5.50;;;2.97;;
80136;SDS011;69466;55.948;37.484;2023-07-29T00:06:38;7.15;;;3.97;;
80136;SDS011;69466;55.948;37.484;2023-07-29T00:09:03;4.63;;;2.53;;
80136;SDS011;69466;55.948;37.484;2023-07-29T00:11:29;5.47;;;3.25;;
80136;SDS011;69466;55.948;37.484;2023-07-29T00:13:55;5.22;;;2.75;;
80136;SDS011;69466;55.948;37.484;2023-07-29T00:16:21;5.75;;;2.60;;
80136;SDS011;69466;55.948;37.484;2023-07-29T00:18:48;6.80;;;2.80;;
80136;SDS011;69466;55.948;37.484;2023-07-29T00:21:14;11.43;;;4.13;;
80136;SDS011;69466;55.948;37.484;2023-07-29T00:23:40;7.45;;;3.28;;
80136;SDS011;69466;55.948;37.484;2023-07-29T00:26:06;5.97;;;3.13;;
80136;SDS011;69466;55.948;37.484;2023-07-29T00:28:31;6.28;;;2.90;;
80136;SDS011;69466;55.948;37.484;2023-07-29T00:30:58;6.28;;;3.15;;
80136;SDS011;69466;55.948;37.484;2023-07-29T00:33:24;7.28;;;3.25;;
80136;SDS011;69466;55.948;37.484;2023-07-29T00:35:50;5.03;;;3.10;;
80136;SDS011;69466;55.948;37.484;2023-07-29T00:38:16;5.90;;;2.70;;
80136;SDS011;69466;55.948;37.484;2023-07-29T00:40:42;6.22;;;3.10;;
80136;SDS011;69466;55.948;37.484;2023-07-29T00:43:09;5.82;;;3.15;;
80136;SDS011;69466;55.948;37.484;2023-07-29T00:45:36;6.20;;;2.92;;
80136;SDS011;69466;55.948;37.484;2023-07-29T00:48:04;5.72;;;3.17;;
80136;SDS011;69466;55.948;37.484;2023-07-29T00:50:32;5.88;;;3.13;;
80136;SDS011;69466;55.948;37.484;2023-07-29T00:53:00;5.70;;;2.90;;
80136;SDS011;69466;55.948;37.484;2023-07-29T00:55:28;5.95;;;2.80;;
80136;SDS011;69466;55.948;37.484;2023-07-29T00:57:54;6.85;;;3.25;;
80136;SDS011;69466;55.948;37.484;2023-07-29T01:00:21;4.60;;;2.65;;
80136;SDS011;69466;55.948;37.484;2023-07-29T01:02:48;6.53;;;3.28;;
80136;SDS011;69466;55.948;37.484;2023-07-29T01:05:14;4.93;;;2.95;;
80136;SDS011;69466;55.948;37.484;2023-07-29T01:07:44;6.13;;;3.22;;
80136;SDS011;69466;55.948;37.484;2023-07-29T01:10:36;6.05;;;2.53;;
80136;SDS011;69466;55.948;37.484;2023-07-29T01:13:05;5.35;;;2.60;;
80136;SDS011;69466;55.948;37.484;2023-07-29T01:19:11;3.97;;;2.25;;
80136;SDS011;69466;55.948;37.484;2023-07-29T01:21:45;5.07;;;2.72;;
80136;SDS011;69466;55.948;37.484;2023-07-29T01:24:11;4.90;;;3.00;;
80136;SDS011;69466;55.948;37.484;2023-07-29T01:26:37;5.63;;;3.15;;
80136;SDS011;69466;55.948;37.484;2023-07-29T01:29:03;5.72;;;3.03;;
80136;SDS011;69466;55.948;37.484;2023-07-29T01:31:37;5.10;;;2.80;;
80136;SDS011;69466;55.948;37.484;2023-07-29T01:34:09;6.03;;;3.72;;
80136;SDS011;69466;55.948;37.484;2023-07-29T01:36:42;5.72;;;3.40;;
80136;SDS011;69466;55.948;37.484;2023-07-29T01:39:11;7.53;;;3.05;;
80136;SDS011;69466;55.948;37.484;2023-07-29T01:41:39;4.30;;;2.63;;
80136;SDS011;69466;55.948;37.484;2023-07-29T01:44:08;5.53;;;3.10;;
80136;SDS011;69466;55.948;37.484;2023-07-29T01:46:36;5.20;;;2.95;;
80136;SDS011;69466;55.948;37.484;2023-07-29T01:49:03;6.20;;;2.90;;
80136;SDS011;69466;55.948;37.484;2023-07-29T01:51:30;6.57;;;2.90;;
80136;SDS011;69466;55.948;37.484;2023-07-29T01:53:57;5.45;;;3.22;;
80136;SDS011;69466;55.948;37.484;2023-07-29T01:56:25;7.85;;;3.17;;
80136;SDS011;69466;55.948;37.484;2023-07-29T01:58:54;6.93;;;3.20;;
80136;SDS011;69466;55.948;37.484;2023-07-29T02:01:21;6.88;;;3.15;;
80136;SDS011;69466;55.948;37.484;2023-07-29T02:03:47;5.18;;;3.05;;
80136;SDS011;69466;55.948;37.484;2023-07-29T02:06:18;6.43;;;3.83;;
80136;SDS011;69466;55.948;37.484;2023-07-29T02:08:48;5.15;;;3.10;;
80136;SDS011;69466;55.948;37.484;2023-07-29T02:11:14;5.82;;;2.97;;
80136;SDS011;69466;55.948;37.484;2023-07-29T02:13:40;6.20;;;3.75;;
80136;SDS011;69466;55.948;37.484;2023-07-29T02:16:06;5.30;;;2.70;;
80136;SDS011;69466;55.948;37.484;2023-07-29T02:18:32;5.82;;;3.55;;
80136;SDS011;69466;55.948;37.484;2023-07-29T02:20:58;9.48;;;4.43;;
80136;SDS011;69466;55.948;37.484;2023-07-29T02:23:23;7.70;;;3.60;;
80136;SDS011;69466;55.948;37.484;2023-07-29T02:25:50;6.03;;;3.20;;
80136;SDS011;69466;55.948;37.484;2023-07-29T02:28:16;6.68;;;3.40;;
80136;SDS011;69466;55.948;37.484;2023-07-29T02:30:42;5.53;;;3.03;;
80136;SDS011;69466;55.948;37.484;2023-07-29T02:33:11;6.20;;;3.30;;
80136;SDS011;69466;55.948;37.484;2023-07-29T02:35:37;5.40;;;2.90;;
80136;SDS011;69466;55.948;37.484;2023-07-29T02:38:03;6.88;;;3.60;;
80136;SDS011;69466;55.948;37.484;2023-07-29T02:40:30;6.35;;;3.20;;
80136;SDS011;69466;55.948;37.484;2023-07-29T02:42:56;5.97;;;3.38;;
80136;SDS011;69466;55.948;37.484;2023-07-29T02:45:22;6.20;;;3.50;;
80136;SDS011;69466;55.948;37.484;2023-07-29T02:47:48;6.95;;;3.63;;
80136;SDS011;69466;55.948;37.484;2023-07-29T02:50:14;6.97;;;3.53;;
80136;SDS011;69466;55.948;37.484;2023-07-29T02:52:40;6.78;;;3.40;;
80136;SDS011;69466;55.948;37.484;2023-07-29T02:55:06;7.30;;;3.20;;
80136;SDS011;69466;55.948;37.484;2023-07-29T02:57:33;6.03;;;3.97;;
80136;SDS011;69466;55.948;37.484;2023-07-29T02:59:59;5.65;;;3.20;;
80136;SDS011;69466;55.948;37.484;2023-07-29T03:02:26;7.22;;;3.67;;
80136;SDS011;69466;55.948;37.484;2023-07-29T03:04:52;5.63;;;3.30;;
80136;SDS011;69466;55.948;37.484;2023-07-29T03:07:18;6.63;;;3.70;;
80136;SDS011;69466;55.948;37.484;2023-07-29T03:09:44;5.35;;;3.08;;
80136;SDS011;69466;55.948;37.484;2023-07-29T03:12:10;6.63;;;3.92;;
80136;SDS011;69466;55.948;37.484;2023-07-29T03:14:36;6.85;;;3.53;;
80136;SDS011;69466;55.948;37.484;2023-07-29T03:17:03;6.80;;;3.50;;
80136;SDS011;69466;55.948;37.484;2023-07-29T03:19:32;5.55;;;3.25;;
80136;SDS011;69466;55.948;37.484;2023-07-29T03:21:58;5.85;;;3.20;;
80136;SDS011;69466;55.948;37.484;2023-07-29T03:24:25;6.15;;;3.70;;
80136;SDS011;69466;55.948;37.484;2023-07-29T03:26:51;5.45;;;3.35;;
80136;SDS011;69466;55.948;37.484;2023-07-29T03:29:16;6.70;;;4.05;;
80136;SDS011;69466;55.948;37.484;2023-07-29T03:31:42;5.35;;;3.30;;
80136;SDS011;69466;55.948;37.484;2023-07-29T03:34:08;7.00;;;4.47;;
80136;SDS011;69466;55.948;37.484;2023-07-29T03:36:37;8.20;;;4.00;;
80136;SDS011;69466;55.948;37.484;2023-07-29T03:39:03;7.43;;;3.83;;
80136;SDS011;69466;55.948;37.484;2023-07-29T03:41:29;6.40;;;4.05;;
80136;SDS011;69466;55.948;37.484;2023-07-29T03:43:56;6.88;;;3.63;;
80136;SDS011;69466;55.948;37.484;2023-07-29T03:46:22;6.70;;;3.92;;
80136;SDS011;69466;55.948;37.484;2023-07-29T03:48:48;7.00;;;4.00;;
80136;SDS011;69466;55.948;37.484;2023-07-29T03:51:14;5.40;;;3.35;;
80136;SDS011;69466;55.948;37.484;2023-07-29T03:53:40;5.07;;;3.05;;
80136;SDS011;69466;55.948;37.484;2023-07-29T03:56:06;6.20;;;3.40;;
80136;SDS011;69466;55.948;37.484;2023-07-29T03:58:33;5.97;;;3.40;;
80136;SDS011;69466;55.948;37.484;2023-07-29T04:00:59;7.53;;;3.95;;
80136;SDS011;69466;55.948;37.484;2023-07-29T04:03:24;5.50;;;3.35;;
80136;SDS011;69466;55.948;37.484;2023-07-29T04:05:52;8.02;;;3.75;;
80136;SDS011;69466;55.948;37.484;2023-07-29T04:08:18;6.20;;;3.88;;
80136;SDS011;69466;55.948;37.484;2023-07-29T04:10:44;5.75;;;3.38;;
80136;SDS011;69466;55.948;37.484;2023-07-29T04:13:10;6.15;;;3.40;;
80136;SDS011;69466;55.948;37.484;2023-07-29T04:15:37;6.75;;;3.60;;
80136;SDS011;69466;55.948;37.484;2023-07-29T04:18:03;9.05;;;4.20;;
80136;SDS011;69466;55.948;37.484;2023-07-29T04:20:28;6.47;;;3.67;;
80136;SDS011;69466;55.948;37.484;2023-07-29T04:22:54;5.43;;;3.50;;
80136;SDS011;69466;55.948;37.484;2023-07-29T04:25:20;6.55;;;3.50;;
80136;SDS011;69466;55.948;37.484;2023-07-29T04:27:47;6.65;;;4.10;;
80136;SDS011;69466;55.948;37.484;2023-07-29T04:30:13;6.60;;;3.45;;
80136;SDS011;69466;55.948;37.484;2023-07-29T04:32:40;7.20;;;4.00;;
80136;SDS011;69466;55.948;37.484;2023-07-29T04:35:10;6.18;;;3.63;;
80136;SDS011;69466;55.948;37.484;2023-07-29T04:37:36;6.82;;;3.75;;
80136;SDS011;69466;55.948;37.484;2023-07-29T04:40:02;7.20;;;4.13;;
80136;SDS011;69466;55.948;37.484;2023-07-29T04:42:29;6.05;;;3.22;;
80136;SDS011;69466;55.948;37.484;2023-07-29T04:44:55;8.70;;;3.60;;
80136;SDS011;69466;55.948;37.484;2023-07-29T04:47:21;11.15;;;7.03;;
80136;SDS011;69466;55.948;37.484;2023-07-29T04:49:46;6.53;;;3.80;;
80136;SDS011;69466;55.948;37.484;2023-07-29T04:52:12;7.95;;;3.33;;
80136;SDS011;69466;55.948;37.484;2023-07-29T04:54:38;7.78;;;3.17;;
80136;SDS011;69466;55.948;37.484;2023-07-29T04:57:04;9.55;;;3.65;;
80136;SDS011;69466;55.948;37.484;2023-07-29T04:59:30;7.15;;;3.25;;
80136;SDS011;69466;55.948;37.484;2023-07-29T05:01:56;6.10;;;3.50;;
80136;SDS011;69466;55.948;37.484;2023-07-29T05:04:22;7.03;;;4.45;;
80136;SDS011;69466;55.948;37.484;2023-07-29T05:06:48;7.53;;;5.10;;
80136;SDS011;69466;55.948;37.484;2023-07-29T05:09:17;8.43;;;5.43;;
80136;SDS011;69466;55.948;37.484;2023-07-29T05:11:45;8.93;;;4.57;;
80136;SDS011;69466;55.948;37.484;2023-07-29T05:14:13;10.23;;;4.40;;
80136;SDS011;69466;55.948;37.484;2023-07-29T05:16:39;6.63;;;3.83;;
80136;SDS011;69466;55.948;37.484;2023-07-29T05:19:05;6.97;;;3.80;;
80136;SDS011;69466;55.948;37.484;2023-07-29T05:21:31;8.13;;;5.07;;
80136;SDS011;69466;55.948;37.484;2023-07-29T05:23:57;7.03;;;5.25;;
80136;SDS011;69466;55.948;37.484;2023-07-29T05:26:23;7.70;;;4.85;;
80136;SDS011;69466;55.948;37.484;2023-07-29T05:28:49;8.52;;;6.20;;
80136;SDS011;69466;55.948;37.484;2023-07-29T05:31:15;8.95;;;5.93;;
80136;SDS011;69466;55.948;37.484;2023-07-29T05:33:41;6.57;;;3.90;;
80136;SDS011;69466;55.948;37.484;2023-07-29T05:36:07;6.03;;;3.55;;
80136;SDS011;69466;55.948;37.484;2023-07-29T05:38:33;4.85;;;3.42;;
80136;SDS011;69466;55.948;37.484;2023-07-29T05:40:59;5.40;;;3.42;;
80136;SDS011;69466;55.948;37.484;2023-07-29T05:43:26;6.18;;;3.60;;
80136;SDS011;69466;55.948;37.484;2023-07-29T05:45:53;7.75;;;4.10;;
80136;SDS011;69466;55.948;37.484;2023-07-29T05:48:21;6.55;;;3.70;;
80136;SDS011;69466;55.948;37.484;2023-07-29T05:50:47;5.20;;;3.10;;
80136;SDS011;69466;55.948;37.484;2023-07-29T05:53:14;4.93;;;3.13;;
80136;SDS011;69466;55.948;37.484;2023-07-29T05:55:40;5.30;;;3.38;;
80136;SDS011;69466;55.948;37.484;2023-07-29T05:58:06;5.32;;;3.80;;
80136;SDS011;69466;55.948;37.484;2023-07-29T06:00:32;7.13;;;4.40;;
80136;SDS011;69466;55.948;37.484;2023-07-29T06:02:59;5.63;;;3.55;;
80136;SDS011;69466;55.948;37.484;2023-07-29T06:05:25;8.68;;;3.50;;
80136;SDS011;69466;55.948;37.484;2023-07-29T06:07:55;5.40;;;3.53;;
80136;SDS011;69466;55.948;37.484;2023-07-29T06:10:20;7.00;;;3.95;;
80136;SDS011;69466;55.948;37.484;2023-07-29T06:12:47;6.80;;;3.50;;
80136;SDS011;69466;55.948;37.484;2023-07-29T06:15:14;6.65;;;3.67;;
80136;SDS011;69466;55.948;37.484;2023-07-29T06:17:41;6.05;;;3.10;;
80136;SDS011;69466;55.948;37.484;2023-07-29T06:20:07;6.25;;;3.40;;
80136;SDS011;69466;55.948;37.484;2023-07-29T06:22:33;7.60;;;3.33;;
80136;SDS011;69466;55.948;37.484;2023-07-29T06:24:59;5.78;;;3.53;;
80136;SDS011;69466;55.948;37.484;2023-07-29T06:27:25;5.60;;;3.30;;
80136;SDS011;69466;55.948;37.484;2023-07-29T06:29:51;7.25;;;4.15;;
80136;SDS011;69466;55.948;37.484;2023-07-29T06:32:17;6.00;;;3.08;;
80136;SDS011;69466;55.948;37.484;2023-07-29T06:34:45;6.32;;;3.63;;
80136;SDS011;69466;55.948;37.484;2023-07-29T06:37:11;6.68;;;3.63;;
80136;SDS011;69466;55.948;37.484;2023-07-29T06:39:37;7.70;;;5.00;;
80136;SDS011;69466;55.948;37.484;2023-07-29T06:42:05;6.28;;;4.05;;
80136;SDS011;69466;55.948;37.484;2023-07-29T06:44:32;7.15;;;4.40;;
80136;SDS011;69466;55.948;37.484;2023-07-29T06:46:58;6.95;;;4.57;;
80136;SDS011;69466;55.948;37.484;2023-07-29T06:51:52;7.30;;;3.83;;
80136;SDS011;69466;55.948;37.484;2023-07-29T06:54:22;6.50;;;3.60;;
80136;SDS011;69466;55.948;37.484;2023-07-29T06:56:50;7.35;;;4.13;;
80136;SDS011;69466;55.948;37.484;2023-07-29T06:59:16;7.53;;;4.10;;
80136;SDS011;69466;55.948;37.484;2023-07-29T07:01:42;4.85;;;3.75;;
80136;SDS011;69466;55.948;37.484;2023-07-29T07:04:08;7.85;;;4.63;;
80136;SDS011;69466;55.948;37.484;2023-07-29T07:06:34;7.82;;;4.72;;
80136;SDS011;69466;55.948;37.484;2023-07-29T07:09:00;7.93;;;4.45;;
80136;SDS011;69466;55.948;37.484;2023-07-29T07:11:26;8.57;;;5.05;;
80136;SDS011;69466;55.948;37.484;2023-07-29T07:13:52;9.13;;;4.20;;
80136;SDS011;69466;55.948;37.484;2023-07-29T07:16:18;8.98;;;8.07;;
80136;SDS011;69466;55.948;37.484;2023-07-29T07:18:44;11.35;;;9.73;;
80136;SDS011;69466;55.948;37.484;2023-07-29T07:21:10;10.38;;;8.63;;
80136;SDS011;69466;55.948;37.484;2023-07-29T07:23:38;9.00;;;6.00;;
80136;SDS011;69466;55.948;37.484;2023-07-29T07:26:05;8.50;;;5.53;;
80136;SDS011;69466;55.948;37.484;2023-07-29T07:28:30;9.70;;;6.05;;
80136;SDS011;69466;55.948;37.484;2023-07-29T07:30:56;7.75;;;4.85;;
80136;SDS011;69466;55.948;37.484;2023-07-29T07:33:23;11.90;;;6.10;;
80136;SDS011;69466;55.948;37.484;2023-07-29T07:35:49;9.65;;;4.82;;
80136;SDS011;69466;55.948;37.484;2023-07-29T07:38:15;8.57;;;4.57;;
80136;SDS011;69466;55.948;37.484;2023-07-29T07:40:40;5.90;;;3.42;;
80136;SDS011;69466;55.948;37.484;2023-07-29T07:43:06;5.97;;;4.30;;
80136;SDS011;69466;55.948;37.484;2023-07-29T07:45:32;6.20;;;3.97;;
80136;SDS011;69466;55.948;37.484;2023-07-29T07:47:58;5.38;;;4.15;;
80136;SDS011;69466;55.948;37.484;2023-07-29T07:50:24;7.15;;;4.20;;
80136;SDS011;69466;55.948;37.484;2023-07-29T07:52:50;7.63;;;5.10;;
80136;SDS011;69466;55.948;37.484;2023-07-29T07:55:16;11.88;;;9.70;;
80136;SDS011;69466;55.948;37.484;2023-07-29T07:57:42;10.35;;;7.93;;
80136;SDS011;69466;55.948;37.484;2023-07-29T08:00:08;7.78;;;5.70;;
80136;SDS011;69466;55.948;37.484;2023-07-29T08:02:43;7.38;;;3.95;;
80136;SDS011;69466;55.948;37.484;2023-07-29T08:05:09;6.22;;;3.47;;
80136;SDS011;69466;55.948;37.484;2023-07-29T08:07:35;4.70;;;3.05;;
80136;SDS011;69466;55.948;37.484;2023-07-29T08:10:02;6.10;;;3.22;;
80136;SDS011;69466;55.948;37.484;2023-07-29T08:12:31;5.75;;;3.83;;
80136;SDS011;69466;55.948;37.484;2023-07-29T08:14:57;5.50;;;3.35;;
80136;SDS011;69466;55.948;37.484;2023-07-29T08:17:23;7.22;;;3.65;;
80136;SDS011;69466;55.948;37.484;2023-07-29T08:19:50;5.40;;;3.33;;
80136;SDS011;69466;55.948;37.484;2023-07-29T08:22:16;5.82;;;3.00;;
80136;SDS011;69466;55.948;37.484;2023-07-29T08:24:43;6.57;;;3.33;;
80136;SDS011;69466;55.948;37.484;2023-07-29T08:27:09;5.72;;;3.55;;
80136;SDS011;69466;55.948;37.484;2023-07-29T08:29:35;6.35;;;3.92;;
80136;SDS011;69466;55.948;37.484;2023-07-29T08:32:01;7.72;;;4.82;;
80136;SDS011;69466;55.948;37.484;2023-07-29T08:34:26;7.22;;;4.28;;
80136;SDS011;69466;55.948;37.484;2023-07-29T08:36:52;8.43;;;4.60;;
80136;SDS011;69466;55.948;37.484;2023-07-29T08:39:18;7.82;;;4.30;;
80136;SDS011;69466;55.948;37.484;2023-07-29T08:41:57;9.30;;;5.20;;
80136;SDS011;69466;55.948;37.484;2023-07-29T08:44:33;6.55;;;3.60;;
80136;SDS011;69466;55.948;37.484;2023-07-29T08:47:02;5.32;;;3.40;;
80136;SDS011;69466;55.948;37.484;2023-07-29T08:49:29;6.80;;;4.00;;
80136;SDS011;69466;55.948;37.484;2023-07-29T08:51:56;7.78;;;5.50;;
80136;SDS011;69466;55.948;37.484;2023-07-29T08:54:23;7.47;;;4.88;;
80136;SDS011;69466;55.948;37.484;2023-07-29T08:56:49;8.50;;;6.57;;
80136;SDS011;69466;55.948;37.484;2023-07-29T08:59:18;12.80;;;7.18;;
80136;SDS011;69466;55.948;37.484;2023-07-29T09:01:44;10.63;;;7.25;;
80136;SDS011;69466;55.948;37.484;2023-07-29T09:04:12;9.85;;;7.07;;
80136;SDS011;69466;55.948;37.484;2023-07-29T09:06:39;8.38;;;5.63;;
80136;SDS011;69466;55.948;37.484;2023-07-29T09:09:07;8.77;;;5.35;;
80136;SDS011;69466;55.948;37.484;2023-07-29T09:11:33;7.95;;;5.40;;
80136;SDS011;69466;55.948;37.484;2023-07-29T09:13:59;8.70;;;4.03;;
80136;SDS011;69466;55.948;37.484;2023-07-29T09:16:25;9.40;;;4.65;;
80136;SDS011;69466;55.948;37.484;2023-07-29T09:18:52;6.20;;;3.75;;
80136;SDS011;69466;55.948;37.484;2023-07-29T09:21:22;7.28;;;4.38;;
80136;SDS011;69466;55.948;37.484;2023-07-29T09:23:50;7.93;;;4.18;;
80136;SDS011;69466;55.948;37.484;2023-07-29T09:26:23;6.38;;;3.38;;
80136;SDS011;69466;55.948;37.484;2023-07-29T09:28:53;6.10;;;3.58;;
80136;SDS011;69466;55.948;37.484;2023-07-29T09:31:21;8.48;;;3.55;;
80136;SDS011;69466;55.948;37.484;2023-07-29T09:33:49;6.40;;;3.55;;
80136;SDS011;69466;55.948;37.484;2023-07-29T09:36:16;5.55;;;3.28;;
80136;SDS011;69466;55.948;37.484;2023-07-29T09:38:42;6.43;;;4.05;;
80136;SDS011;69466;55.948;37.484;2023-07-29T09:41:11;6.82;;;3.80;;
80136;SDS011;69466;55.948;37.484;2023-07-29T09:43:39;6.93;;;4.60;;
80136;SDS011;69466;55.948;37.484;2023-07-29T09:46:06;5.55;;;3.60;;
80136;SDS011;69466;55.948;37.484;2023-07-29T09:48:35;6.68;;;3.88;;
80136;SDS011;69466;55.948;37.484;2023-07-29T09:51:11;7.95;;;3.80;;
80136;SDS011;69466;55.948;37.484;2023-07-29T09:53:42;5.55;;;3.35;;
80136;SDS011;69466;55.948;37.484;2023-07-29T09:56:10;6.43;;;3.25;;
80136;SDS011;69466;55.948;37.484;2023-07-29T09:58:37;5.75;;;3.45;;
80136;SDS011;69466;55.948;37.484;2023-07-29T10:01:07;6.00;;;3.42;;
80136;SDS011;69466;55.948;37.484;2023-07-29T10:03:35;5.55;;;3.10;;
80136;SDS011;69466;55.948;37.484;2023-07-29T10:06:05;6.07;;;3.50;;
80136;SDS011;69466;55.948;37.484;2023-07-29T10:08:32;6.95;;;4.15;;
80136;SDS011;69466;55.948;37.484;2023-07-29T10:11:07;7.63;;;3.10;;
80136;SDS011;69466;55.948;37.484;2023-07-29T10:13:34;5.88;;;3.20;;
80136;SDS011;69466;55.948;37.484;2023-07-29T10:16:00;6.18;;;3.60;;
80136;SDS011;69466;55.948;37.484;2023-07-29T10:18:32;8.20;;;3.78;;
80136;SDS011;69466;55.948;37.484;2023-07-29T10:21:00;6.53;;;3.38;;
80136;SDS011;69466;55.948;37.484;2023-07-29T10:23:27;5.55;;;3.55;;
80136;SDS011;69466;55.948;37.484;2023-07-29T10:25:59;8.00;;;3.90;;
80136;SDS011;69466;55.948;37.484;2023-07-29T10:28:32;5.43;;;3.30;;
80136;SDS011;69466;55.948;37.484;2023-07-29T10:31:00;7.07;;;4.28;;
80136;SDS011;69466;55.948;37.484;2023-07-29T10:33:29;6.57;;;3.50;;
80136;SDS011;69466;55.948;37.484;2023-07-29T10:35:58;7.57;;;3.17;;
80136;SDS011;69466;55.948;37.484;2023-07-29T10:38:24;7.10;;;3.72;;
80136;SDS011;69466;55.948;37.484;2023-07-29T10:40:52;5.60;;;3.53;;
80136;SDS011;69466;55.948;37.484;2023-07-29T10:43:27;6.15;;;3.53;;
80136;SDS011;69466;55.948;37.484;2023-07-29T10:45:57;6.28;;;2.95;;
80136;SDS011;69466;55.948;37.484;2023-07-29T10:48:41;6.18;;;3.45;;
80136;SDS011;69466;55.948;37.484;2023-07-29T10:51:28;7.00;;;3.67;;
80136;SDS011;69466;55.948;37.484;2023-07-29T10:54:13;6.20;;;3.38;;
80136;SDS011;69466;55.948;37.484;2023-07-29T10:56:41;8.98;;;3.55;;
80136;SDS011;69466;55.948;37.484;2023-07-29T11:01:50;6.00;;;3.70;;
80136;SDS011;69466;55.948;37.484;2023-07-29T11:04:24;7.90;;;4.32;;
80136;SDS011;69466;55.948;37.484;2023-07-29T11:09:39;6.65;;;3.70;;
80136;SDS011;69466;55.948;37.484;2023-07-29T11:12:05;8.85;;;4.97;;
80136;SDS011;69466;55.948;37.484;2023-07-29T11:14:51;8.10;;;4.55;;
80136;SDS011;69466;55.948;37.484;2023-07-29T11:17:17;10.32;;;4.93;;
80136;SDS011;69466;55.948;37.484;2023-07-29T11:19:44;8.70;;;5.03;;
80136;SDS011;69466;55.948;37.484;2023-07-29T11:22:10;6.75;;;4.10;;
80136;SDS011;69466;55.948;37.484;2023-07-29T11:24:41;7.30;;;4.13;;
80136;SDS011;69466;55.948;37.484;2023-07-29T11:27:11;8.35;;;4.60;;
80136;SDS011;69466;55.948;37.484;2023-07-29T11:29:37;7.82;;;4.38;;
80136;SDS011;69466;55.948;37.484;2023-07-29T11:32:05;7.43;;;4.63;;
80136;SDS011;69466;55.948;37.484;2023-07-29T11:34:34;7.25;;;5.10;;
80136;SDS011;69466;55.948;37.484;2023-07-29T11:37:00;8.77;;;5.28;;
80136;SDS011;69466;55.948;37.484;2023-07-29T11:39:27;10.73;;;6.35;;
80136;SDS011;69466;55.948;37.484;2023-07-29T11:41:53;10.13;;;6.25;;
80136;SDS011;69466;55.948;37.484;2023-07-29T11:44:19;8.68;;;6.07;;
80136;SDS011;69466;55.948;37.484;2023-07-29T11:46:45;9.30;;;4.75;;
80136;SDS011;69466;55.948;37.484;2023-07-29T11:49:13;8.90;;;4.93;;
80136;SDS011;69466;55.948;37.484;2023-07-29T11:51:39;5.50;;;3.83;;
80136;SDS011;69466;55.948;37.484;2023-07-29T11:54:08;6.38;;;3.90;;
80136;SDS011;69466;55.948;37.484;2023-07-29T11:56:34;6.38;;;3.70;;
80136;SDS011;69466;55.948;37.484;2023-07-29T11:59:01;7.38;;;3.40;;
80136;SDS011;69466;55.948;37.484;2023-07-29T12:01:28;10.48;;;3.60;;
80136;SDS011;69466;55.948;37.484;2023-07-29T12:03:55;4.68;;;2.67;;
80136;SDS011;69466;55.948;37.484;2023-07-29T12:06:22;6.30;;;3.60;;
80136;SDS011;69466;55.948;37.484;2023-07-29T12:08:50;6.85;;;3.60;;
80136;SDS011;69466;55.948;37.484;2023-07-29T12:11:16;6.32;;;2.92;;
80136;SDS011;69466;55.948;37.484;2023-07-29T12:13:42;5.28;;;2.80;;
80136;SDS011;69466;55.948;37.484;2023-07-29T12:16:08;6.90;;;2.85;;
80136;SDS011;69466;55.948;37.484;2023-07-29T12:18:35;5.28;;;3.00;;
80136;SDS011;69466;55.948;37.484;2023-07-29T12:21:02;5.70;;;2.60;;
80136;SDS011;69466;55.948;37.484;2023-07-29T12:23:28;7.80;;;2.97;;
80136;SDS011;69466;55.948;37.484;2023-07-29T12:25:56;5.35;;;3.03;;
80136;SDS011;69466;55.948;37.484;2023-07-29T12:28:23;6.70;;;3.20;;
80136;SDS011;69466;55.948;37.484;2023-07-29T12:30:56;5.03;;;2.65;;
80136;SDS011;69466;55.948;37.484;2023-07-29T12:33:35;7.18;;;3.33;;
80136;SDS011;69466;55.948;37.484;2023-07-29T12:36:02;8.68;;;3.30;;
80136;SDS011;69466;55.948;37.484;2023-07-29T12:38:28;7.30;;;3.35;;
80136;SDS011;69466;55.948;37.484;2023-07-29T12:40:55;6.80;;;3.05;;
80136;SDS011;69466;55.948;37.484;2023-07-29T12:43:22;5.85;;;3.05;;
80136;SDS011;69466;55.948;37.484;2023-07-29T12:45:51;8.32;;;3.53;;
80136;SDS011;69466;55.948;37.484;2023-07-29T12:48:18;8.05;;;3.38;;
80136;SDS011;69466;55.948;37.484;2023-07-29T12:50:43;6.38;;;3.20;;
80136;SDS011;69466;55.948;37.484;2023-07-29T12:53:11;5.28;;;3.05;;
80136;SDS011;69466;55.948;37.484;2023-07-29T12:55:39;6.57;;;3.67;;
80136;SDS011;69466;55.948;37.484;2023-07-29T12:58:09;8.70;;;3.30;;
80136;SDS011;69466;55.948;37.484;2023-07-29T13:00:35;5.32;;;3.05;;
80136;SDS011;69466;55.948;37.484;2023-07-29T13:03:01;6.13;;;3.30;;
80136;SDS011;69466;55.948;37.484;2023-07-29T13:05:30;6.18;;;3.28;;
80136;SDS011;69466;55.948;37.484;2023-07-29T13:07:56;7.38;;;4.15;;
80136;SDS011;69466;55.948;37.484;2023-07-29T13:10:22;8.38;;;5.80;;
80136;SDS011;69466;55.948;37.484;2023-07-29T13:12:48;9.13;;;5.45;;
80136;SDS011;69466;55.948;37.484;2023-07-29T13:15:14;7.88;;;4.07;;
80136;SDS011;69466;55.948;37.484;2023-07-29T13:17:41;8.05;;;3.88;;
80136;SDS011;69466;55.948;37.484;2023-07-29T13:20:07;7.35;;;3.72;;
80136;SDS011;69466;55.948;37.484;2023-07-29T13:22:33;5.78;;;2.95;;
80136;SDS011;69466;55.948;37.484;2023-07-29T13:24:59;7.57;;;4.00;;
80136;SDS011;69466;55.948;37.484;2023-07-29T13:27:25;5.68;;;3.25;;
80136;SDS011;69466;55.948;37.484;2023-07-29T13:29:52;6.35;;;3.20;;
80136;SDS011;69466;55.948;37.484;2023-07-29T13:32:17;5.60;;;2.65;;
80136;SDS011;69466;55.948;37.484;2023-07-29T13:34:44;7.47;;;3.22;;
80136;SDS011;69466;55.948;37.484;2023-07-29T13:37:10;5.43;;;3.92;;
80136;SDS011;69466;55.948;37.484;2023-07-29T13:39:36;6.03;;;3.53;;
80136;SDS011;69466;55.948;37.484;2023-07-29T13:42:02;7.30;;;3.80;;
80136;SDS011;69466;55.948;37.484;2023-07-29T13:44:28;6.50;;;3.13;;
80136;SDS011;69466;55.948;37.484;2023-07-29T13:46:53;7.97;;;3.70;;
80136;SDS011;69466;55.948;37.484;2023-07-29T13:49:20;7.82;;;5.10;;
80136;SDS011;69466;55.948;37.484;2023-07-29T13:51:46;11.80;;;8.27;;
80136;SDS011;69466;55.948;37.484;2023-07-29T13:54:12;15.85;;;13.05;;
80136;SDS011;69466;55.948;37.484;2023-07-29T13:56:37;17.02;;;14.48;;
80136;SDS011;69466;55.948;37.484;2023-07-29T13:59:03;15.02;;;13.10;;
80136;SDS011;69466;55.948;37.484;2023-07-29T14:01:29;14.35;;;9.65;;
80136;SDS011;69466;55.948;37.484;2023-07-29T14:03:55;8.40;;;6.45;;
80136;SDS011;69466;55.948;37.484;2023-07-29T14:06:21;10.90;;;6.15;;
80136;SDS011;69466;55.948;37.484;2023-07-29T14:08:48;8.35;;;4.63;;
80136;SDS011;69466;55.948;37.484;2023-07-29T14:11:14;7.32;;;3.78;;
80136;SDS011;69466;55.948;37.484;2023-07-29T14:13:41;7.45;;;3.10;;
80136;SDS011;69466;55.948;37.484;2023-07-29T14:16:07;6.43;;;3.63;;
80136;SDS011;69466;55.948;37.484;2023-07-29T14:18:33;8.13;;;3.58;;
80136;SDS011;69466;55.948;37.484;2023-07-29T14:20:58;11.77;;;5.40;;
80136;SDS011;69466;55.948;37.484;2023-07-29T14:23:24;8.40;;;5.28;;
80136;SDS011;69466;55.948;37.484;2023-07-29T14:25:52;7.68;;;4.50;;
80136;SDS011;69466;55.948;37.484;2023-07-29T14:28:19;8.05;;;4.07;;
80136;SDS011;69466;55.948;37.484;2023-07-29T14:30:45;7.57;;;3.50;;
80136;SDS011;69466;55.948;37.484;2023-07-29T14:33:11;7.25;;;4.43;;
80136;SDS011;69466;55.948;37.484;2023-07-29T14:35:38;6.88;;;2.72;;
80136;SDS011;69466;55.948;37.484;2023-07-29T14:38:08;7.68;;;3.95;;
80136;SDS011;69466;55.948;37.484;2023-07-29T14:40:34;5.93;;;3.50;;
80136;SDS011;69466;55.948;37.484;2023-07-29T14:43:00;5.70;;;3.35;;
80136;SDS011;69466;55.948;37.484;2023-07-29T14:45:27;7.10;;;3.35;;